Terminal Aerodrome Forecast
Issued by NWS

Home | Current Version | Previous Version | Text Only | Print | Product List | Glossary On
Versions: 1 2 3 4 5 6 7 8 9 10 11 12 13 14 15 16 17 18 19 20 21 22 23 24 25 26 27 28 29
000
FTUS45 KPSR 300200 AAA
TAFPHX
TAF AMD
KPHX 300257Z 3003/3024 10005KT P6SM -RA OVC070
     FM300700 10010KT 6SM -RA BR SCT025 OVC035
     FM301100 10010KT 5SM -RA BR FEW008 BKN015 OVC025
     FM301800 07010KT 6SM -RA BR SCT015 BKN025 OVC035=

USA.gov is the U.S. government's official web portal to all federal, state and local government web resources and services.